createdAt,value
2023-01-08T00:01:12.399Z,99621.09
2023-01-08T00:03:52.958Z,99621.45
2023-01-08T00:06:29.446Z,99621.58
2023-01-08T00:09:02.155Z,99621.03
2023-01-08T00:11:36.226Z,99619.08
2023-01-08T00:14:08.708Z,99617.57
2023-01-08T00:16:40.910Z,99614.66
2023-01-08T00:19:14.373Z,99611.35
2023-01-08T00:21:46.734Z,99607.13
2023-01-08T00:24:19.197Z,99607.16
2023-01-08T00:26:57.130Z,99608.10
2023-01-08T00:29:29.964Z,99608.81
2023-01-08T00:32:02.746Z,99603.08
2023-01-08T00:34:35.370Z,99604.13
2023-01-08T00:37:07.859Z,99603.71
2023-01-08T00:39:40.124Z,99600.91
2023-01-08T00:43:24.127Z,99595.67
2023-01-08T00:45:56.264Z,99590.52
2023-01-08T00:48:28.474Z,99581.83
2023-01-08T00:50:57.619Z,99576.78
2023-01-08T00:53:26.653Z,99578.55
2023-01-08T00:56:02.015Z,99579.80
2023-01-08T00:58:31.506Z,99578.35
2023-01-08T01:01:08.985Z,99576.25
2023-01-08T01:03:38.242Z,99574.01
2023-01-08T01:06:08.989Z,99575.57
2023-01-08T01:08:38.240Z,99573.16
2023-01-08T01:11:11.419Z,99572.27
2023-01-08T01:13:50.638Z,99570.00
2023-01-08T01:16:19.807Z,99566.91
2023-01-08T01:18:53.160Z,99564.78
2023-01-08T01:21:25.454Z,99559.02
2023-01-08T01:23:56.105Z,99553.17
2023-01-08T01:26:29.354Z,99551.27
2023-01-08T01:29:02.082Z,99549.49
2023-01-08T01:31:32.396Z,99551.60
2023-01-08T01:34:04.739Z,99553.40
2023-01-08T01:36:34.183Z,99555.96
2023-01-08T01:39:06.378Z,99554.66
2023-01-08T01:41:40.351Z,99558.27
2023-01-08T01:44:43.763Z,99559.30
2023-01-08T01:47:20.905Z,99565.00
2023-01-08T01:49:57.923Z,99566.58
2023-01-08T01:52:31.014Z,99571.27
2023-01-08T01:55:01.341Z,99574.92
2023-01-08T01:57:33.016Z,99576.40
2023-01-08T02:00:05.503Z,99569.36
2023-01-08T02:02:50.242Z,99559.85
2023-01-08T02:05:22.197Z,99550.02
2023-01-08T02:08:01.764Z,99547.59
2023-01-08T02:10:38.857Z,99547.39
2023-01-08T02:13:26.755Z,99551.88
2023-01-08T02:16:03.355Z,99552.23
2023-01-08T02:18:40.144Z,99550.09
2023-01-08T02:21:19.205Z,99545.02
2023-01-08T02:24:05.739Z,99536.10
2023-01-08T02:26:35.960Z,99530.63
2023-01-08T02:29:08.580Z,99528.95
2023-01-08T02:31:41.526Z,99519.63
2023-01-08T02:34:11.615Z,99513.55
2023-01-08T02:36:41.872Z,99513.30
2023-01-08T02:39:32.883Z,99512.44
2023-01-08T02:42:09.118Z,99519.26
2023-01-08T02:44:50.604Z,99520.33
2023-01-08T02:47:28.839Z,99517.41
2023-01-08T02:50:07.747Z,99520.07
2023-01-08T02:52:42.563Z,99518.14
2023-01-08T02:55:17.136Z,99515.35
2023-01-08T02:57:47.143Z,99515.45
2023-01-08T03:00:19.730Z,99515.04
2023-01-08T03:02:52.200Z,99514.60
2023-01-08T03:05:26.223Z,99519.40
2023-01-08T03:07:56.293Z,99517.19
2023-01-08T03:10:26.777Z,99513.35
2023-01-08T03:13:01.049Z,99514.58
2023-01-08T03:15:36.507Z,99514.08
2023-01-08T03:18:23.648Z,99510.88
2023-01-08T03:20:53.730Z,99515.31
2023-01-08T03:23:27.104Z,99507.30
2023-01-08T03:25:58.883Z,99504.23
2023-01-08T03:28:33.279Z,99501.11
2023-01-08T03:31:02.842Z,99501.19
2023-01-08T03:33:33.244Z,99502.88
2023-01-08T03:36:07.058Z,99502.73
2023-01-08T03:38:40.585Z,99505.42
2023-01-08T03:41:16.609Z,99502.45
2023-01-08T03:43:48.555Z,99497.06
2023-01-08T03:46:21.608Z,99491.77
2023-01-08T03:48:51.554Z,99489.04
2023-01-08T03:51:20.511Z,99492.81
2023-01-08T03:53:52.923Z,99494.89
2023-01-08T03:56:22.203Z,99497.02
2023-01-08T03:58:54.802Z,99496.55
2023-01-08T04:01:27.056Z,99492.84
2023-01-08T04:03:56.507Z,99489.94
2023-01-08T04:06:29.029Z,99489.44
2023-01-08T04:09:01.012Z,99499.19
2023-01-08T04:11:29.978Z,99495.77
2023-01-08T04:14:02.171Z,99496.11
2023-01-08T04:16:31.812Z,99500.31
2023-01-08T04:19:04.226Z,99504.00
2023-01-08T04:21:33.328Z,99502.77
2023-01-08T04:24:02.469Z,99498.83
2023-01-08T04:26:31.935Z,99496.63
2023-01-08T04:29:05.796Z,99494.23
2023-01-08T04:31:38.168Z,99497.16
2023-01-08T04:34:07.787Z,99492.39
2023-01-08T04:36:36.875Z,99489.60
2023-01-08T04:39:07.954Z,99487.59
2023-01-08T04:41:39.889Z,99485.31
2023-01-08T04:44:10.068Z,99481.35
2023-01-08T04:46:39.628Z,99479.80
2023-01-08T04:49:12.876Z,99476.94
2023-01-08T04:51:54.943Z,99477.19
2023-01-08T04:54:27.122Z,99473.52
2023-01-08T04:56:56.202Z,99474.79
2023-01-08T04:59:25.762Z,99467.86
2023-01-08T05:01:56.146Z,99467.57
2023-01-08T05:04:25.236Z,99455.75
2023-01-08T05:06:54.624Z,99454.73
2023-01-08T05:09:27.077Z,99456.02
2023-01-08T05:11:59.269Z,99461.45
2023-01-08T05:14:28.549Z,99457.14
2023-01-08T05:17:00.207Z,99452.75
2023-01-08T05:19:29.647Z,99450.64
2023-01-08T05:21:58.645Z,99452.06
2023-01-08T05:24:30.600Z,99449.25
2023-01-08T05:27:03.613Z,99447.86
2023-01-08T05:29:32.908Z,99456.50
2023-01-08T05:32:06.561Z,99460.06
2023-01-08T05:34:35.820Z,99455.07
2023-01-08T05:37:07.943Z,99443.84
2023-01-08T05:39:39.552Z,99438.52
2023-01-08T05:42:11.689Z,99439.54
2023-01-08T05:44:41.078Z,99442.02
2023-01-08T05:47:10.513Z,99447.23
2023-01-08T05:49:42.358Z,99445.22
2023-01-08T05:52:11.316Z,99442.66
2023-01-08T05:54:40.357Z,99442.17
2023-01-08T05:57:10.056Z,99443.19
2023-01-08T05:59:50.949Z,99444.15
2023-01-08T06:02:20.156Z,99439.88
2023-01-08T06:04:52.300Z,99435.98
2023-01-08T06:07:24.590Z,99433.36
2023-01-08T06:09:57.230Z,99430.41
2023-01-08T06:12:26.410Z,99427.46
2023-01-08T06:14:55.712Z,99426.52
2023-01-08T06:17:28.001Z,99423.25
2023-01-08T06:20:00.123Z,99426.02
2023-01-08T06:22:29.487Z,99428.23
2023-01-08T06:24:58.713Z,99427.01
2023-01-08T06:27:30.558Z,99428.89
2023-01-08T06:29:59.845Z,99431.29
2023-01-08T06:32:31.924Z,99428.45
2023-01-08T06:35:01.466Z,99423.55
2023-01-08T06:37:33.091Z,99416.70
2023-01-08T06:40:06.235Z,99413.41
2023-01-08T06:42:35.548Z,99413.32
2023-01-08T06:45:06.006Z,99417.63
2023-01-08T06:47:35.366Z,99414.68
2023-01-08T06:50:09.210Z,99410.38
2023-01-08T06:52:38.478Z,99413.12
2023-01-08T06:55:11.568Z,99409.50
2023-01-08T06:57:41.098Z,99407.48
2023-01-08T07:00:21.764Z,99405.68
2023-01-08T07:02:57.280Z,99411.38
2023-01-08T07:05:27.243Z,99410.45
2023-01-08T07:07:56.940Z,99414.06
2023-01-08T07:10:27.236Z,99411.45
2023-01-08T07:12:56.405Z,99416.47
2023-01-08T07:15:25.712Z,99410.46
2023-01-08T07:17:55.116Z,99408.86
2023-01-08T07:20:24.366Z,99407.24
2023-01-08T07:22:53.762Z,99407.66
2023-01-08T07:25:28.845Z,99401.95
2023-01-08T07:28:01.576Z,99400.91
2023-01-08T07:30:56.185Z,99395.14
2023-01-08T07:33:28.963Z,99395.65
2023-01-08T07:36:02.257Z,99392.77
2023-01-08T07:38:58.220Z,99386.37
2023-01-08T07:41:54.873Z,99386.23
2023-01-08T07:44:26.487Z,99391.64
2023-01-08T07:46:56.362Z,99389.62
2023-01-08T07:49:28.471Z,99386.12
2023-01-08T07:51:57.791Z,99384.36
2023-01-08T07:54:26.720Z,99380.71
2023-01-08T07:56:55.990Z,99376.92
2023-01-08T07:59:28.264Z,99379.02
2023-01-08T08:01:57.419Z,99377.08
2023-01-08T08:04:26.889Z,99375.29
2023-01-08T08:06:56.441Z,99367.30
2023-01-08T08:09:26.118Z,99363.50
2023-01-08T08:11:55.239Z,99366.16
2023-01-08T08:14:24.314Z,99369.70
2023-01-08T08:16:53.867Z,99369.63
2023-01-08T08:19:25.837Z,99373.16
2023-01-08T08:21:58.112Z,99372.52
2023-01-08T08:24:27.467Z,99374.30
2023-01-08T08:26:56.633Z,99369.38
2023-01-08T08:29:25.806Z,99365.39
2023-01-08T08:31:55.209Z,99363.14
2023-01-08T08:34:24.230Z,99362.52
2023-01-08T08:36:53.891Z,99358.98
2023-01-08T08:39:26.297Z,99356.30
2023-01-08T08:41:55.779Z,99348.95
2023-01-08T08:44:25.103Z,99342.11
2023-01-08T08:46:54.660Z,99340.30
2023-01-08T08:49:23.901Z,99335.27
2023-01-08T08:51:53.437Z,99334.53
2023-01-08T08:54:25.587Z,99331.94
2023-01-08T08:56:54.866Z,99330.20
2023-01-08T08:59:24.161Z,99325.16
2023-01-08T09:01:53.241Z,99320.06
2023-01-08T09:04:31.291Z,99319.10
2023-01-08T09:07:01.184Z,99316.23
2023-01-08T09:09:33.357Z,99308.96
2023-01-08T09:12:02.377Z,99302.80
2023-01-08T09:14:31.858Z,99297.63
2023-01-08T09:17:03.814Z,99288.78
2023-01-08T09:19:36.316Z,99283.98
2023-01-08T09:22:05.584Z,99284.20
2023-01-08T09:24:38.111Z,99281.83
2023-01-08T09:27:09.026Z,99283.21
2023-01-08T09:29:39.679Z,99280.22
2023-01-08T09:32:09.750Z,99277.47
2023-01-08T09:34:39.153Z,99276.73
2023-01-08T09:37:11.259Z,99276.67
2023-01-08T09:39:47.999Z,99276.08
2023-01-08T09:42:22.839Z,99278.92
2023-01-08T09:44:56.484Z,99283.60
2023-01-08T09:47:35.915Z,99283.43
2023-01-08T09:50:11.454Z,99280.45
2023-01-08T09:52:43.528Z,99278.50
2023-01-08T09:55:17.044Z,99276.02
2023-01-08T09:57:48.035Z,99265.73
2023-01-08T10:00:22.636Z,99264.52
2023-01-08T10:02:57.523Z,99253.77
2023-01-08T10:05:28.402Z,99253.13
2023-01-08T10:07:57.948Z,99250.90
2023-01-08T10:10:31.274Z,99245.90
2023-01-08T10:13:00.690Z,99239.09
2023-01-08T10:15:30.201Z,99234.17
2023-01-08T10:18:26.259Z,99224.59
2023-01-08T10:20:57.933Z,99217.02
2023-01-08T10:23:59.589Z,99225.34
2023-01-08T10:27:05.904Z,99227.56
2023-01-08T10:29:41.697Z,99229.13
2023-01-08T10:32:19.465Z,99225.60
2023-01-08T10:34:51.995Z,99229.05
2023-01-08T10:37:30.900Z,99230.41
2023-01-08T10:40:08.469Z,99223.78
2023-01-08T10:42:39.847Z,99216.88
2023-01-08T10:45:24.112Z,99208.31
2023-01-08T10:47:58.680Z,99204.80
2023-01-08T10:50:30.402Z,99203.19
2023-01-08T10:53:01.839Z,99206.48
2023-01-08T10:55:33.194Z,99205.50
2023-01-08T10:58:04.636Z,99200.17
2023-01-08T11:00:37.157Z,99198.73
2023-01-08T11:03:08.712Z,99198.34
2023-01-08T11:05:40.435Z,99196.60
2023-01-08T11:08:34.675Z,99192.63
2023-01-08T11:11:04.860Z,99185.52
2023-01-08T11:13:33.873Z,99182.67
2023-01-08T11:16:06.543Z,99177.82
2023-01-08T11:18:46.084Z,99173.17
2023-01-08T11:21:25.737Z,99169.70
2023-01-08T11:24:26.574Z,99156.28
2023-01-08T11:27:05.013Z,99156.84
2023-01-08T11:29:47.873Z,99156.16
2023-01-08T11:32:41.906Z,99152.57
2023-01-08T11:35:20.932Z,99155.86
2023-01-08T11:37:53.868Z,99159.59
2023-01-08T11:40:40.039Z,99158.58
2023-01-08T11:43:33.178Z,99155.73
2023-01-08T11:46:24.261Z,99154.90
2023-01-08T11:49:28.061Z,99155.18
2023-01-08T11:52:23.613Z,99154.52
2023-01-08T11:55:24.649Z,99155.70
2023-01-08T11:58:10.343Z,99155.67
2023-01-08T12:01:00.500Z,99154.37
2023-01-08T12:03:36.949Z,99146.98
2023-01-08T12:06:33.099Z,99152.02
2023-01-08T12:09:15.504Z,99141.21
2023-01-08T12:11:51.767Z,99130.81
2023-01-08T12:14:55.167Z,99132.34
2023-01-08T12:17:54.575Z,99125.23
2023-01-08T12:20:37.701Z,99125.20
2023-01-08T12:23:21.090Z,99131.90
2023-01-08T12:26:04.474Z,99129.88
2023-01-08T12:29:10.766Z,99131.14
2023-01-08T12:32:14.985Z,99126.16
2023-01-08T12:35:08.159Z,99122.24
2023-01-08T12:37:46.116Z,99122.61
2023-01-08T12:40:18.176Z,99128.05
2023-01-08T12:43:00.022Z,99132.46
2023-01-08T12:45:37.770Z,99137.73
2023-01-08T12:48:15.518Z,99139.80
2023-01-08T12:51:01.072Z,99135.21
2023-01-08T12:53:46.831Z,99135.14
2023-01-08T12:56:23.561Z,99135.70
2023-01-08T12:59:06.755Z,99132.60
2023-01-08T13:01:53.826Z,99133.03
2023-01-08T13:04:26.660Z,99139.16
2023-01-08T13:07:02.055Z,99139.98
2023-01-08T13:09:35.616Z,99141.44
2023-01-08T13:12:05.512Z,99136.84
2023-01-08T13:14:46.557Z,99140.42
2023-01-08T13:17:21.674Z,99139.48
2023-01-08T13:19:55.989Z,99146.02
2023-01-08T13:22:34.680Z,99144.69
2023-01-08T13:25:28.506Z,99145.11
2023-01-08T13:28:28.451Z,99149.09
2023-01-08T13:31:09.916Z,99155.65
2023-01-08T13:33:43.602Z,99155.64
2023-01-08T13:36:21.770Z,99159.61
2023-01-08T13:39:06.939Z,99152.72
2023-01-08T13:41:39.460Z,99149.83
2023-01-08T13:44:29.701Z,99147.04
2023-01-08T13:47:02.175Z,99145.06
2023-01-08T13:49:37.015Z,99141.40
2023-01-08T13:52:06.799Z,99137.51
2023-01-08T13:54:40.287Z,99137.00
2023-01-08T13:57:18.222Z,99141.05
2023-01-08T13:59:53.415Z,99137.44
2023-01-08T14:02:33.088Z,99143.20
2023-01-08T14:05:12.416Z,99135.64
2023-01-08T14:07:46.321Z,99130.10
2023-01-08T14:10:20.947Z,99130.05
2023-01-08T14:12:56.483Z,99125.67
2023-01-08T14:15:28.507Z,99123.36
2023-01-08T14:17:58.519Z,99117.50
2023-01-08T14:20:37.030Z,99118.23
2023-01-08T14:23:13.211Z,99113.02
2023-01-08T14:25:45.045Z,99106.79
2023-01-08T14:28:20.201Z,99101.25
2023-01-08T14:30:51.194Z,99098.45
2023-01-08T14:33:23.800Z,99090.65
2023-01-08T14:36:00.416Z,99086.52
2023-01-08T14:38:29.593Z,99088.14
2023-01-08T14:41:03.776Z,99082.16
2023-01-08T14:43:40.244Z,99081.34
2023-01-08T14:46:19.662Z,99082.70
2023-01-08T14:48:58.608Z,99082.85
2023-01-08T14:51:31.172Z,99084.45
2023-01-08T14:54:04.538Z,99091.05
2023-01-08T14:56:36.180Z,99089.71
2023-01-08T14:59:10.503Z,99086.61
2023-01-08T15:01:40.214Z,99092.33
2023-01-08T15:04:17.006Z,99091.29
2023-01-08T15:07:08.901Z,99085.88
2023-01-08T15:09:37.850Z,99088.00
2023-01-08T15:12:23.483Z,99080.58
2023-01-08T15:14:55.069Z,99078.25
2023-01-08T15:17:28.252Z,99067.44
2023-01-08T15:20:01.438Z,99063.17
2023-01-08T15:22:33.125Z,99064.15
2023-01-08T15:25:16.050Z,99064.29
2023-01-08T15:27:54.776Z,99058.25
2023-01-08T15:30:30.683Z,99056.53
2023-01-08T15:33:09.306Z,99055.36
2023-01-08T15:35:38.544Z,99051.20
2023-01-08T15:38:08.516Z,99048.29
2023-01-08T15:40:37.011Z,99044.63
2023-01-08T15:43:12.442Z,99036.30
2023-01-08T15:45:44.583Z,99029.11
2023-01-08T15:48:14.322Z,99028.17
2023-01-08T15:50:45.486Z,99035.77
2023-01-08T15:53:18.615Z,99030.94
2023-01-08T15:55:51.068Z,99037.27
2023-01-08T15:58:24.409Z,99031.21
2023-01-08T16:00:56.523Z,99026.64
2023-01-08T16:03:26.042Z,99020.17
2023-01-08T16:05:55.500Z,99023.41
2023-01-08T16:08:25.172Z,99023.52
2023-01-08T16:10:57.071Z,99024.66
2023-01-08T16:13:26.681Z,99023.61
2023-01-08T16:15:55.887Z,99021.73
2023-01-08T16:18:30.103Z,99021.25
2023-01-08T16:21:02.935Z,99016.67
2023-01-08T16:23:39.964Z,99014.72
2023-01-08T16:26:15.035Z,99011.36
2023-01-08T16:28:44.290Z,99010.70
2023-01-08T16:31:13.341Z,99011.83
2023-01-08T16:33:42.690Z,99011.52
2023-01-08T16:36:14.633Z,99010.25
2023-01-08T16:38:43.649Z,99010.90
2023-01-08T16:41:15.407Z,99016.15
2023-01-08T16:43:47.663Z,99014.98
2023-01-08T16:46:29.857Z,99016.85
2023-01-08T16:48:59.214Z,99022.08
2023-01-08T16:51:28.668Z,99024.48
2023-01-08T16:53:57.587Z,99028.28
2023-01-08T16:56:26.556Z,99031.62
2023-01-08T16:58:58.476Z,99033.59
2023-01-08T17:01:27.948Z,99033.05
2023-01-08T17:04:00.697Z,99031.61
2023-01-08T17:06:30.915Z,99029.98
2023-01-08T17:08:59.756Z,99025.95
2023-01-08T17:11:32.917Z,99028.34
2023-01-08T17:14:02.462Z,99030.62
2023-01-08T17:16:34.646Z,99028.40
2023-01-08T17:19:04.258Z,99028.86
2023-01-08T17:21:36.519Z,99032.42
2023-01-08T17:24:06.971Z,99033.79
2023-01-08T17:26:36.542Z,99033.88
2023-01-08T17:29:08.698Z,99033.44
2023-01-08T17:31:40.454Z,99039.13
2023-01-08T17:34:13.465Z,99040.29
2023-01-08T17:36:42.719Z,99041.35
2023-01-08T17:39:12.355Z,99043.66
2023-01-08T17:41:59.489Z,99045.54
2023-01-08T17:44:30.467Z,99039.55
2023-01-08T17:47:02.239Z,99036.09
2023-01-08T17:49:37.871Z,99031.41
2023-01-08T17:52:07.426Z,99024.08
2023-01-08T17:54:38.033Z,99021.56
2023-01-08T17:57:07.480Z,99024.48
2023-01-08T17:59:36.756Z,99023.48
2023-01-08T18:02:06.558Z,99020.91
2023-01-08T18:04:36.058Z,99015.08
2023-01-08T18:07:05.701Z,99013.09
2023-01-08T18:09:38.417Z,99012.98
2023-01-08T18:12:08.443Z,99007.90
2023-01-08T18:14:39.272Z,99008.46
2023-01-08T18:17:08.791Z,99013.56
2023-01-08T18:19:38.395Z,99013.30
2023-01-08T18:22:08.104Z,99001.89
2023-01-08T18:24:37.291Z,99000.70
2023-01-08T18:27:06.485Z,98997.63
2023-01-08T18:29:36.340Z,98997.03
2023-01-08T18:32:07.852Z,98994.41
2023-01-08T18:34:40.017Z,98995.79
2023-01-08T18:37:12.590Z,99000.41
2023-01-08T18:39:41.814Z,98996.30
2023-01-08T18:42:26.142Z,98991.34
2023-01-08T18:44:56.855Z,98979.41
2023-01-08T18:47:30.723Z,98979.58
2023-01-08T18:50:03.666Z,98977.87
2023-01-08T18:52:33.810Z,98975.09
2023-01-08T18:55:03.352Z,98972.22
2023-01-08T18:57:32.799Z,98971.84
2023-01-08T19:00:04.245Z,98973.65
2023-01-08T19:02:33.712Z,98971.95
2023-01-08T19:05:05.864Z,98967.27
2023-01-08T19:07:34.880Z,98965.91
2023-01-08T19:10:04.773Z,98964.34
2023-01-08T19:12:39.577Z,98959.88
2023-01-08T19:15:11.562Z,98951.61
2023-01-08T19:17:40.672Z,98948.45
2023-01-08T19:20:12.276Z,98947.59
2023-01-08T19:22:41.798Z,98948.16
2023-01-08T19:25:16.095Z,98935.47
2023-01-08T19:27:45.653Z,98932.58
2023-01-08T19:30:15.650Z,98933.54
2023-01-08T19:32:46.007Z,98936.90
2023-01-08T19:35:30.880Z,98935.13
2023-01-08T19:38:00.518Z,98927.10
2023-01-08T19:40:29.688Z,98921.45
2023-01-08T19:43:17.119Z,98926.27
2023-01-08T19:45:46.353Z,98921.45
2023-01-08T19:48:15.781Z,98919.00
2023-01-08T19:50:46.393Z,98917.09
2023-01-08T19:53:27.663Z,98908.38
2023-01-08T19:55:57.235Z,98905.33
2023-01-08T19:58:28.902Z,98902.79
2023-01-08T20:01:11.476Z,98900.56
2023-01-08T20:03:41.594Z,98902.07
2023-01-08T20:06:12.631Z,98894.65
2023-01-08T20:08:41.877Z,98894.85
2023-01-08T20:11:12.748Z,98888.88
2023-01-08T20:13:42.501Z,98884.75
2023-01-08T20:16:15.279Z,98881.80
2023-01-08T20:18:45.272Z,98878.29
2023-01-08T20:21:18.702Z,98877.73
2023-01-08T20:24:03.297Z,98869.98
2023-01-08T20:26:35.599Z,98865.39
2023-01-08T20:29:05.902Z,98864.02
2023-01-08T20:31:35.011Z,98862.13
2023-01-08T20:34:06.923Z,98854.39
2023-01-08T20:36:36.497Z,98855.73
2023-01-08T20:39:08.255Z,98855.10
2023-01-08T20:41:46.702Z,98852.42
2023-01-08T20:44:31.336Z,98843.64
2023-01-08T20:47:01.134Z,98838.41
2023-01-08T20:49:33.105Z,98835.03
2023-01-08T20:52:02.539Z,98837.44
2023-01-08T20:54:32.228Z,98832.80
2023-01-08T20:57:01.715Z,98819.02
2023-01-08T20:59:31.196Z,98803.43
2023-01-08T21:02:00.802Z,98791.71
2023-01-08T21:04:29.854Z,98792.42
2023-01-08T21:06:59.250Z,98789.02
2023-01-08T21:09:34.828Z,98785.10
2023-01-08T21:12:10.559Z,98780.86
2023-01-08T21:14:40.279Z,98773.96
2023-01-08T21:17:10.082Z,98769.61
2023-01-08T21:19:39.150Z,98762.54
2023-01-08T21:22:09.186Z,98758.02
2023-01-08T21:24:37.648Z,98760.21
2023-01-08T21:27:09.640Z,98765.29
2023-01-08T21:29:38.485Z,98771.42
2023-01-08T21:32:08.109Z,98765.92
2023-01-08T21:34:37.755Z,98764.34
2023-01-08T21:37:08.117Z,98765.89
2023-01-08T21:39:37.598Z,98769.15
2023-01-08T21:42:24.570Z,98761.81
2023-01-08T21:45:12.544Z,98755.21
2023-01-08T21:47:42.033Z,98754.98
2023-01-08T21:50:15.767Z,98755.73
2023-01-08T21:53:02.986Z,98751.17
2023-01-08T21:55:33.467Z,98748.77
2023-01-08T21:58:02.394Z,98744.92
2023-01-08T22:00:31.618Z,98749.20
2023-01-08T22:03:01.089Z,98745.41
2023-01-08T22:05:35.984Z,98750.02
2023-01-08T22:08:05.318Z,98754.70
2023-01-08T22:10:41.966Z,98758.09
2023-01-08T22:13:11.107Z,98754.91
2023-01-08T22:15:40.208Z,98750.53
2023-01-08T22:18:09.164Z,98751.36
2023-01-08T22:20:38.775Z,98750.64
2023-01-08T22:23:08.777Z,98753.80
2023-01-08T22:25:40.798Z,98749.60
2023-01-08T22:28:11.099Z,98750.80
2023-01-08T22:30:40.704Z,98745.91
2023-01-08T22:33:09.578Z,98739.67
2023-01-08T22:35:39.296Z,98730.87
2023-01-08T22:38:11.184Z,98729.83
2023-01-08T22:40:40.469Z,98725.36
2023-01-08T22:43:09.342Z,98722.10
2023-01-08T22:45:39.454Z,98719.54
2023-01-08T22:48:08.488Z,98716.20
2023-01-08T22:50:37.586Z,98715.65
2023-01-08T22:53:06.569Z,98713.69
2023-01-08T22:55:39.962Z,98710.89
2023-01-08T22:58:09.464Z,98708.74
2023-01-08T23:00:38.902Z,98709.22
2023-01-08T23:03:08.534Z,98711.77
2023-01-08T23:05:38.213Z,98701.72
2023-01-08T23:08:08.065Z,98698.86
2023-01-08T23:10:37.388Z,98690.15
2023-01-08T23:13:06.807Z,98685.66
2023-01-08T23:15:35.788Z,98691.21
2023-01-08T23:18:04.801Z,98687.72
2023-01-08T23:20:34.506Z,98672.17
2023-01-08T23:23:04.256Z,98659.55
2023-01-08T23:25:38.996Z,98653.09
2023-01-08T23:28:11.323Z,98649.46
2023-01-08T23:30:42.580Z,98642.27
2023-01-08T23:33:11.871Z,98636.83
2023-01-08T23:35:43.975Z,98640.45
2023-01-08T23:38:13.255Z,98644.45
2023-01-08T23:40:44.060Z,98650.57
2023-01-08T23:43:15.856Z,98651.60
2023-01-08T23:45:45.187Z,98646.39
2023-01-08T23:48:14.163Z,98640.44
2023-01-08T23:50:46.377Z,98642.78
2023-01-08T23:53:15.196Z,98640.34
2023-01-08T23:55:44.502Z,98633.64
2023-01-08T23:58:14.271Z,98627.33
